Aeroporto :
LOGIN :

Iscrizione | Disclaimer

   EN    FR    IT 

 










Sommario :    VFR   VFR Marginale   IFR   IFR Intensivo   IFR Molto Intensivo
Visibilità : 
Base nubi : 
>= 8 km
>= 3000ft
5 / 8 km
1000 / 3000 ft
1500m / 5 km
500 / 1000 ft
800 / 1500m
200 / 500 ft
< 800m
< 200 ft
Simboli :   Temporali  Nebbia  Neve Forte  Precipitazioni Forti  Vento > 20 kt
SIGMETs :   Varie  Temporali  Ghiacco  Turbolenza  Onda orograficha  Ceneri Vulcaniche






- Altitudine del aeroporto : 600 ft
- Codice IATA : VIE


LOWW - Vienna Schwechat

ULTIMO METAR :
  • 161820Z 14017KT CAVOK 10/01 Q1021 NOSIG

METARs OBSOLETI :
  • 161750Z 14014KT CAVOK 10/02 Q1021 NOSIG
  • 161720Z 14015KT CAVOK 10/02 Q1021 NOSIG
  • 161650Z 13014KT CAVOK 10/02 Q1022 NOSIG
  • 161620Z 13014KT CAVOK 11/02 Q1021 NOSIG
  • 161550Z 14013KT CAVOK 11/02 Q1022 NOSIG

TAF TAF LOWW
Valido dal 16 a 18 ore il 18 a 00 ore UTC


161715Z 1618/1724 14010KT CAVOK TX12/1714Z TN03/1706Z
TEMPO 1618/1619 15015KT
BECMG 1703/1705 12004KT
PROB30
TEMPO 1703/1708 VRB02KT 4000 BR FEW005
FM172300 29015G25KT 9999 FEW040 BKN070



MetMap, La meteo Aeronautica in un colpo d'occhio ! - Copyright ORBIFLY Dicembre 2007 - Disclaimer

ORBIFLY MET'MAP TEAM :

Programmazione e sviluppo : Alexandra Zaïnal
Concezione : Baudouin d'Aumeries
Aiuto per la programmazione : Marc-Olivier Méhu
Supporto tecnico e logistico : Manuel Goepfert
Aiuto per la traduzione : Arnaldo La Scala

Contatto : metmap@orbifly.com




FONTI E CREDITI :

   NOAA